Time;durP1;ratioP1;P1;durP2;ratioP2;P2;SDS_P1;SDS_P2;PMS_P1;PMS_P2;Temp;Humidity;BMP_temperature;BMP_pressure;BME280_temperature;BME280_humidity;BME280_pressure;Samples;Min_cycle;Max_cycle;Signal;HPM_P1;HPM_P2
2021/12/16 00:02:12;;;;;;;;;;;;;;;;;;1913315;28;7021;-64
2021/12/16 00:08:42;;;;;;;;;;;;;;;;;;1895010;28;7026;-63
2021/12/16 00:10:48;;;;;;;;;;;;;;;;;;1892127;28;7014;-63
2021/12/16 00:32:59;;;;;;;;;;;;;;;;;;1920464;28;7009;-63
2021/12/16 00:34:04;;;;;;;;;;;;;;;;;;1920651;28;7351;-63
2021/12/16 00:35:03;;;;;;;;;;;;;;;;;;1919360;28;7184;-63
2021/12/16 00:36:01;;;;;;;;;;;;;;;;;;1920009;28;8681;-63
2021/12/16 00:37:00;;;;;;;;;;;;;;;;;;1917042;28;7045;-63
2021/12/16 00:37:58;;;;;;;;;;;;;;;;;;1912894;28;7018;-62
2021/12/16 00:38:56;;;;;;;;;;;;;;;;;;1913512;28;7343;-64
2021/12/16 00:39:53;;;;;;;;;;;;;;;;;;1913495;28;7045;-64
2021/12/16 00:40:51;;;;;;;;;;;;;;;;;;1913006;28;7021;-64
2021/12/16 00:41:52;;;;;;;;;;;;;;;;;;1913721;28;7041;-63
2021/12/16 00:42:55;;;;;;;;;;;;;;;;;;1916419;28;8287;-64
2021/12/16 00:44:04;;;;;;;;;;;;;;;;;;1920963;28;7009;-63
2021/12/16 00:45:43;;;;;;;;;;;;;;;;;;1920759;28;7009;-63
2021/12/16 00:46:56;;;;;;;;;;;;;;;;;;1916840;28;7006;-64
2021/12/16 00:47:58;;;;;;;;;;;;;;;;;;1920900;28;8086;-63
2021/12/16 00:50:19;;;;;;;;;;;;;;;;;;1920674;28;7109;-63
2021/12/16 00:56:20;;;;;;;;;;;;;;;;;;1921331;28;7001;-63
2021/12/16 00:57:17;;;;;;;;;;;;;;;;;;1920592;28;7005;-62
2021/12/16 00:58:19;;;;;;;;;;;;;;;;;;1920998;28;7005;-63
2021/12/16 00:59:18;;;;;;;;;;;;;;;;;;1913087;28;7074;-63
2021/12/16 01:00:17;;;;;;;;;;;;;;;;;;1913204;28;7423;-64
2021/12/16 01:01:56;;;;;;;;;;;;;;;;;;1913175;28;7009;-64
2021/12/16 01:05:18;;;;;;;;;;;;;;;;;;1913173;28;7018;-64
2021/12/16 01:06:35;;;;;;;;;;;;;;;;;;1912901;28;7009;-63
2021/12/16 01:36:18;;;;;;;;;;;;;;;;;;1913301;28;7223;-64
2021/12/16 01:40:06;;;;;;;;;;;;;;;;;;1920371;28;8123;-64
2021/12/16 01:42:25;;;;;;;;;;;;;;;;;;1912607;28;7155;-63
2021/12/16 01:46:10;;;;;;;;;;;;;;;;;;1913074;28;7093;-64
2021/12/16 01:49:36;;;;;;;;;;;;;;;;;;1918434;28;7013;-64
2021/12/16 01:50:38;;;;;;;;;;;;;;;;;;1919942;28;7005;-64
2021/12/16 01:54:03;;;;;;;;;;;;;;;;;;1912837;28;7010;-63
2021/12/16 01:55:19;;;;;;;;;;;;;;;;;;1912872;28;7009;-63
2021/12/16 01:56:28;;;;;;;;;;;;;;;;;;1912779;28;7046;-62
2021/12/16 01:57:32;;;;;;;;;;;;;;;;;;1912981;28;7009;-64
2021/12/16 01:58:32;;;;;;;;;;;;;;;;;;1912804;28;8105;-63
2021/12/16 01:59:35;;;;;;;;;;;;;;;;;;1912973;28;7046;-64
2021/12/16 02:00:51;;;;;;;;;;;;;;;;;;1912916;28;7324;-64
2021/12/16 02:01:49;;;;;;;;;;;;;;;;;;1912742;28;8099;-63
2021/12/16 02:02:50;;;;;;;;;;;;;;;;;;1912480;28;7018;-63
2021/12/16 02:03:54;;;;;;;;;;;;;;;;;;1912963;28;7009;-64
2021/12/16 02:08:47;;;;;;;;;;;;;;;;;;1911556;28;7118;-63
2021/12/16 02:09:46;;;;;;;;;;;;;;;;;;1913038;28;7379;-63
2021/12/16 02:10:48;;;;;;;;;;;;;;;;;;1912464;28;7042;-63
2021/12/16 02:12:00;;;;;;;;;;;;;;;;;;1912804;28;7096;-63
2021/12/16 02:31:47;;;;;;;;;;;;;;;;;;1912405;28;7117;-63
2021/12/16 02:33:13;;;;;;;;;;;;;;;;;;1912847;28;8043;-64
2021/12/16 02:35:33;;;;;;;;;;;;;;;;;;1912080;28;7009;-63
2021/12/16 02:37:38;;;;;;;;;;;;;;;;;;1912577;28;7316;-64
2021/12/16 02:38:36;;;;;;;;;;;;;;;;;;1912662;28;7005;-64
2021/12/16 02:39:34;;;;;;;;;;;;;;;;;;1912728;28;7006;-63
2021/12/16 02:40:32;;;;;;;;;;;;;;;;;;1912810;28;7050;-64
2021/12/16 02:41:30;;;;;;;;;;;;;;;;;;1912787;28;7304;-64
2021/12/16 02:42:38;;;;;;;;;;;;;;;;;;1913226;28;7088;-64
2021/12/16 02:44:10;;;;;;;;;;;;;;;;;;1910842;28;7109;-64
2021/12/16 02:48:57;;;;;;;;;;;;;;;;;;1912794;28;7005;-63
2021/12/16 02:49:54;;;;;;;;;;;;;;;;;;1912694;28;7038;-64
2021/12/16 02:50:52;;;;;;;;;;;;;;;;;;1912827;28;7109;-64
2021/12/16 02:51:51;;;;;;;;;;;;;;;;;;1912955;28;7054;-63
2021/12/16 02:52:49;;;;;;;;;;;;;;;;;;1912961;28;7017;-64
2021/12/16 02:53:48;;;;;;;;;;;;;;;;;;1912830;28;7093;-64
2021/12/16 02:54:46;;;;;;;;;;;;;;;;;;1913239;28;7009;-64
2021/12/16 02:55:46;;;;;;;;;;;;;;;;;;1912654;28;7041;-63
2021/12/16 02:56:43;;;;;;;;;;;;;;;;;;1912882;28;7006;-63
2021/12/16 02:57:49;;;;;;;;;;;;;;;;;;1911314;28;7017;-63
2021/12/16 02:58:49;;;;;;;;;;;;;;;;;;1912510;28;7038;-63
2021/12/16 02:59:49;;;;;;;;;;;;;;;;;;1912453;28;8009;-63
2021/12/16 03:00:50;;;;;;;;;;;;;;;;;;1912936;28;7006;-64
2021/12/16 03:01:51;;;;;;;;;;;;;;;;;;1912302;28;7109;-64
2021/12/16 03:02:51;;;;;;;;;;;;;;;;;;1912819;28;7042;-64
2021/12/16 03:03:48;;;;;;;;;;;;;;;;;;1904777;28;7096;-64
2021/12/16 03:04:48;;;;;;;;;;;;;;;;;;1905323;28;7022;-64
2021/12/16 03:05:46;;;;;;;;;;;;;;;;;;1911553;28;7324;-63
2021/12/16 03:06:46;;;;;;;;;;;;;;;;;;1913083;28;7005;-63
2021/12/16 03:07:43;;;;;;;;;;;;;;;;;;1912359;28;8107;-64
2021/12/16 03:08:41;;;;;;;;;;;;;;;;;;1913460;28;7002;-63
2021/12/16 03:11:17;;;;;;;;;;;;;;;;;;1914141;28;7041;-63
2021/12/16 03:13:56;;;;;;;;;;;;;;;;;;1915494;28;7013;-63
2021/12/16 03:14:53;;;;;;;;;;;;;;;;;;1921201;28;7005;-63
2021/12/16 03:17:52;;;;;;;;;;;;;;;;;;1921546;28;8019;-63
2021/12/16 03:20:44;;;;;;;;;;;;;;;;;;1921362;28;7244;-63
2021/12/16 03:21:49;;;;;;;;;;;;;;;;;;1921357;28;7013;-63
2021/12/16 03:25:43;;;;;;;;;;;;;;;;;;1914410;28;7980;-63
2021/12/16 03:30:38;;;;;;;;;;;;;;;;;;1920895;28;7068;-63
2021/12/16 03:36:04;;;;;;;;;;;;;;;;;;1882459;28;7025;-64
2021/12/16 03:37:22;;;;;;;;;;;;;;;;;;1879364;28;7035;-63
2021/12/16 03:38:20;;;;;;;;;;;;;;;;;;1901126;28;7092;-64
2021/12/16 03:39:18;;;;;;;;;;;;;;;;;;1914043;28;7005;-63
2021/12/16 03:40:16;;;;;;;;;;;;;;;;;;1914060;28;7100;-63
2021/12/16 03:41:13;;;;;;;;;;;;;;;;;;1913805;28;7365;-63
2021/12/16 03:42:12;;;;;;;;;;;;;;;;;;1915389;28;7092;-63
2021/12/16 03:43:13;;;;;;;;;;;;;;;;;;1921302;28;7006;-63
2021/12/16 03:44:14;;;;;;;;;;;;;;;;;;1921560;28;7018;-64
2021/12/16 03:46:44;;;;;;;;;;;;;;;;;;1920833;28;7021;-63
2021/12/16 03:47:43;;;;;;;;;;;;;;;;;;1915470;28;7013;-64
2021/12/16 03:48:47;;;;;;;;;;;;;;;;;;1913836;28;7096;-64
2021/12/16 03:49:45;;;;;;;;;;;;;;;;;;1913850;28;7109;-63
2021/12/16 03:50:43;;;;;;;;;;;;;;;;;;1914067;28;7042;-63
2021/12/16 03:51:45;;;;;;;;;;;;;;;;;;1914173;28;7010;-63
2021/12/16 03:52:42;;;;;;;;;;;;;;;;;;1914143;28;7049;-64
2021/12/16 03:53:44;;;;;;;;;;;;;;;;;;1913788;28;7113;-62
2021/12/16 03:54:49;;;;;;;;;;;;;;;;;;1913785;28;7017;-64
2021/12/16 03:55:48;;;;;;;;;;;;;;;;;;1913661;28;7093;-63
2021/12/16 03:56:46;;;;;;;;;;;;;;;;;;1912374;28;7018;-63
2021/12/16 03:57:44;;;;;;;;;;;;;;;;;;1917547;28;8993;-64
2021/12/16 03:58:41;;;;;;;;;;;;;;;;;;1921280;28;7170;-64
2021/12/16 03:59:40;;;;;;;;;;;;;;;;;;1912906;28;7096;-64
2021/12/16 04:00:43;;;;;;;;;;;;;;;;;;1914242;28;7010;-63
2021/12/16 04:01:41;;;;;;;;;;;;;;;;;;1914020;28;7323;-63
2021/12/16 04:02:39;;;;;;;;;;;;;;;;;;1913626;28;7116;-63
2021/12/16 04:03:37;;;;;;;;;;;;;;;;;;1913642;28;7573;-63
2021/12/16 04:04:35;;;;;;;;;;;;;;;;;;1913671;28;7009;-63
2021/12/16 04:05:32;;;;;;;;;;;;;;;;;;1914330;28;7009;-63
2021/12/16 04:06:31;;;;;;;;;;;;;;;;;;1913475;28;7014;-63
2021/12/16 04:07:30;;;;;;;;;;;;;;;;;;1920571;28;7010;-64
2021/12/16 04:08:28;;;;;;;;;;;;;;;;;;1919724;28;7021;-63
2021/12/16 04:09:26;;;;;;;;;;;;;;;;;;1914017;28;7037;-63
2021/12/16 04:10:31;;;;;;;;;;;;;;;;;;1913887;28;7021;-63
2021/12/16 04:11:38;;;;;;;;;;;;;;;;;;1905540;28;7196;-64
2021/12/16 04:12:36;;;;;;;;;;;;;;;;;;1905263;28;7042;-63
2021/12/16 04:13:42;;;;;;;;;;;;;;;;;;1915635;28;7096;-63
2021/12/16 04:14:41;;;;;;;;;;;;;;;;;;1921004;28;7376;-63
2021/12/16 04:15:39;;;;;;;;;;;;;;;;;;1921065;28;7096;-63
2021/12/16 04:16:40;;;;;;;;;;;;;;;;;;1920577;28;8067;-63
2021/12/16 04:17:55;;;;;;;;;;;;;;;;;;1921309;28;7084;-64
2021/12/16 04:18:53;;;;;;;;;;;;;;;;;;1920707;28;7038;-64
2021/12/16 04:19:51;;;;;;;;;;;;;;;;;;1920337;28;7021;-63
2021/12/16 04:20:49;;;;;;;;;;;;;;;;;;1912308;28;7092;-62
2021/12/16 04:21:51;;;;;;;;;;;;;;;;;;1912640;28;7957;-63
2021/12/16 04:22:49;;;;;;;;;;;;;;;;;;1913909;28;7126;-63
2021/12/16 04:23:48;;;;;;;;;;;;;;;;;;1913239;28;8039;-63
2021/12/16 04:24:48;;;;;;;;;;;;;;;;;;1913115;28;7005;-63
2021/12/16 04:25:47;;;;;;;;;;;;;;;;;;1913262;28;7093;-64
2021/12/16 04:26:46;;;;;;;;;;;;;;;;;;1911909;28;7006;-63
2021/12/16 04:27:44;;;;;;;;;;;;;;;;;;1913057;28;7021;-64
2021/12/16 04:28:42;;;;;;;;;;;;;;;;;;1912720;28;7021;-63
2021/12/16 04:29:40;;;;;;;;;;;;;;;;;;1913607;28;7005;-64
2021/12/16 04:30:38;;;;;;;;;;;;;;;;;;1912935;28;7308;-63
2021/12/16 04:31:36;;;;;;;;;;;;;;;;;;1911211;28;7010;-63
2021/12/16 04:32:34;;;;;;;;;;;;;;;;;;1912904;28;7009;-64
2021/12/16 04:33:31;;;;;;;;;;;;;;;;;;1913431;28;7010;-64
2021/12/16 04:34:29;;;;;;;;;;;;;;;;;;1913895;28;7412;-64
2021/12/16 04:35:26;;;;;;;;;;;;;;;;;;1920268;28;7371;-63
2021/12/16 04:36:24;;;;;;;;;;;;;;;;;;1921608;28;7379;-64
2021/12/16 04:37:22;;;;;;;;;;;;;;;;;;1913738;28;7120;-63
2021/12/16 04:38:19;;;;;;;;;;;;;;;;;;1913490;28;7069;-64
2021/12/16 04:39:20;;;;;;;;;;;;;;;;;;1919130;28;7109;-64
2021/12/16 04:40:19;;;;;;;;;;;;;;;;;;1920904;28;7009;-64
2021/12/16 04:41:17;;;;;;;;;;;;;;;;;;1920867;28;7009;-63
2021/12/16 04:42:17;;;;;;;;;;;;;;;;;;1912340;28;7031;-63
2021/12/16 04:43:20;;;;;;;;;;;;;;;;;;1913317;28;7005;-63
2021/12/16 04:44:17;;;;;;;;;;;;;;;;;;1913795;28;7006;-64
2021/12/16 04:45:17;;;;;;;;;;;;;;;;;;1913952;28;7034;-64
2021/12/16 04:46:17;;;;;;;;;;;;;;;;;;1913511;28;7009;-64
2021/12/16 04:47:15;;;;;;;;;;;;;;;;;;1913433;28;7113;-63
2021/12/16 04:48:12;;;;;;;;;;;;;;;;;;1913286;28;8043;-62
2021/12/16 04:49:11;;;;;;;;;;;;;;;;;;1913474;28;7042;-64
2021/12/16 04:50:10;;;;;;;;;;;;;;;;;;1913381;28;7170;-64
2021/12/16 04:51:08;;;;;;;;;;;;;;;;;;1913528;28;7133;-63
2021/12/16 04:52:08;;;;;;;;;;;;;;;;;;1913488;28;7368;-62
2021/12/16 04:53:06;;;;;;;;;;;;;;;;;;1914092;28;8159;-64
2021/12/16 04:54:04;;;;;;;;;;;;;;;;;;1913649;28;7009;-64
2021/12/16 04:55:03;;;;;;;;;;;;;;;;;;1913399;28;7117;-64
2021/12/16 04:56:01;;;;;;;;;;;;;;;;;;1913149;28;7006;-63
2021/12/16 04:57:00;;;;;;;;;;;;;;;;;;1913457;28;7157;-63
2021/12/16 04:57:58;;;;;;;;;;;;;;;;;;1913300;28;7010;-63
2021/12/16 04:58:55;;;;;;;;;;;;;;;;;;1913839;28;7117;-63
2021/12/16 04:59:53;;;;;;;;;;;;;;;;;;1913918;28;7100;-63
2021/12/16 05:00:50;;;;;;;;;;;;;;;;;;1913861;28;7100;-63
2021/12/16 05:01:51;;;;;;;;;;;;;;;;;;1913128;28;8024;-62
2021/12/16 05:02:54;;;;;;;;;;;;;;;;;;1913331;28;8423;-63
2021/12/16 05:03:53;;;;;;;;;;;;;;;;;;1913450;28;7096;-63
2021/12/16 05:04:50;;;;;;;;;;;;;;;;;;1913341;28;7395;-63
2021/12/16 05:05:48;;;;;;;;;;;;;;;;;;1903975;28;7021;-63
2021/12/16 05:06:46;;;;;;;;;;;;;;;;;;1905158;28;7050;-63
2021/12/16 05:07:44;;;;;;;;;;;;;;;;;;1912332;28;7009;-64
2021/12/16 05:08:41;;;;;;;;;;;;;;;;;;1912863;28;7021;-63
2021/12/16 05:10:39;;;;;;;;;;;;;;;;;;1911894;28;7100;-63
2021/12/16 05:11:37;;;;;;;;;;;;;;;;;;1913235;28;7096;-63
2021/12/16 05:12:39;;;;;;;;;;;;;;;;;;1912934;28;7076;-63
2021/12/16 05:13:36;;;;;;;;;;;;;;;;;;1916822;28;7109;-64
2021/12/16 05:14:34;;;;;;;;;;;;;;;;;;1912920;28;7010;-63
2021/12/16 05:15:35;;;;;;;;;;;;;;;;;;1913682;28;7117;-63
2021/12/16 05:16:33;;;;;;;;;;;;;;;;;;1917246;28;7092;-63
2021/12/16 05:17:39;;;;;;;;;;;;;;;;;;1920501;28;8034;-63
2021/12/16 05:18:38;;;;;;;;;;;;;;;;;;1920300;28;7029;-63
2021/12/16 05:19:38;;;;;;;;;;;;;;;;;;1920258;28;8022;-64
2021/12/16 05:20:39;;;;;;;;;;;;;;;;;;1919973;28;7009;-64
2021/12/16 05:25:13;;;;;;;;;;;;;;;;;;1920127;28;7005;-64
2021/12/16 05:27:09;;;;;;;;;;;;;;;;;;1919772;28;7025;-63
2021/12/16 05:28:07;;;;;;;;;;;;;;;;;;1920109;28;7005;-63
2021/12/16 05:29:04;;;;;;;;;;;;;;;;;;1920090;28;8039;-63
2021/12/16 05:30:02;;;;;;;;;;;;;;;;;;1920517;28;8125;-64
2021/12/16 05:31:01;;;;;;;;;;;;;;;;;;1920445;28;7042;-63
2021/12/16 05:32:00;;;;;;;;;;;;;;;;;;1920699;28;7018;-64
2021/12/16 05:32:57;;;;;;;;;;;;;;;;;;1920727;28;7013;-62
2021/12/16 05:33:56;;;;;;;;;;;;;;;;;;1920254;28;7121;-63
2021/12/16 05:34:54;;;;;;;;;;;;;;;;;;1911522;28;7096;-64
2021/12/16 05:35:53;;;;;;;;;;;;;;;;;;1911956;28;7005;-64
2021/12/16 05:36:51;;;;;;;;;;;;;;;;;;1915048;28;8059;-62
2021/12/16 05:37:49;;;;;;;;;;;;;;;;;;1920902;28;7128;-62
2021/12/16 05:38:47;;;;;;;;;;;;;;;;;;1913865;28;7005;-64
2021/12/16 05:39:45;;;;;;;;;;;;;;;;;;1918631;28;7005;-63
2021/12/16 05:40:42;;;;;;;;;;;;;;;;;;1915429;28;7010;-64
2021/12/16 05:41:40;;;;;;;;;;;;;;;;;;1920667;28;7096;-63
2021/12/16 05:42:37;;;;;;;;;;;;;;;;;;1920911;28;7006;-62
2021/12/16 05:43:36;;;;;;;;;;;;;;;;;;1920638;28;7295;-63
2021/12/16 05:44:33;;;;;;;;;;;;;;;;;;1921104;28;7038;-64
2021/12/16 05:45:31;;;;;;;;;;;;;;;;;;1920950;28;7038;-63
2021/12/16 05:46:29;;;;;;;;;;;;;;;;;;1920716;28;7109;-63
2021/12/16 05:47:26;;;;;;;;;;;;;;;;;;1920886;28;7030;-63
2021/12/16 05:48:26;;;;;;;;;;;;;;;;;;1920867;28;7037;-63
2021/12/16 05:49:23;;;;;;;;;;;;;;;;;;1920909;28;7005;-63
2021/12/16 05:50:21;;;;;;;;;;;;;;;;;;1920588;28;7096;-63
2021/12/16 05:51:45;;;;;;;;;;;;;;;;;;1920897;28;7088;-62
2021/12/16 05:52:43;;;;;;;;;;;;;;;;;;1909859;28;7223;-63
2021/12/16 05:53:45;;;;;;;;;;;;;;;;;;1912527;28;7375;-63
2021/12/16 05:54:43;;;;;;;;;;;;;;;;;;1920345;28;7006;-62
2021/12/16 05:55:40;;;;;;;;;;;;;;;;;;1921366;28;7013;-63
2021/12/16 05:56:38;;;;;;;;;;;;;;;;;;1920777;28;7001;-63
2021/12/16 05:57:36;;;;;;;;;;;;;;;;;;1920877;28;7058;-62
2021/12/16 05:58:36;;;;;;;;;;;;;;;;;;1920616;28;7013;-64
2021/12/16 05:59:33;;;;;;;;;;;;;;;;;;1920548;28;7129;-62
2021/12/16 06:00:33;;;;;;;;;;;;;;;;;;1920533;28;7006;-63
2021/12/16 06:01:33;;;;;;;;;;;;;;;;;;1918202;28;7100;-64
2021/12/16 06:02:30;;;;;;;;;;;;;;;;;;1913623;28;7088;-63
2021/12/16 06:03:32;;;;;;;;;;;;;;;;;;1912620;28;7281;-62
2021/12/16 06:04:30;;;;;;;;;;;;;;;;;;1913062;28;7093;-63
2021/12/16 06:05:27;;;;;;;;;;;;;;;;;;1912934;28;7005;-63
2021/12/16 06:06:26;;;;;;;;;;;;;;;;;;1913192;28;7092;-63
2021/12/16 06:07:23;;;;;;;;;;;;;;;;;;1913132;28;8077;-63
2021/12/16 06:08:21;;;;;;;;;;;;;;;;;;1912886;28;7005;-63
2021/12/16 06:09:18;;;;;;;;;;;;;;;;;;1911482;28;7096;-64
2021/12/16 06:11:12;;;;;;;;;;;;;;;;;;1913000;28;7100;-63
2021/12/16 06:11:35;;;;;;;;;;;;;;;;;;1912321;28;7113;-63
2021/12/16 06:12:33;;;;;;;;;;;;;;;;;;1911939;28;7017;-63
2021/12/16 06:13:35;;;;;;;;;;;;;;;;;;1915454;28;7013;-63
2021/12/16 06:27:50;;;;;;;;;;;;;;;;;;1919543;28;7152;-63
2021/12/16 06:28:47;;;;;;;;;;;;;;;;;;1920147;28;7308;-63
2021/12/16 06:29:47;;;;;;;;;;;;;;;;;;1920340;28;7096;-63
2021/12/16 06:30:44;;;;;;;;;;;;;;;;;;1911383;28;7101;-63
2021/12/16 06:31:42;;;;;;;;;;;;;;;;;;1912930;28;7009;-63
2021/12/16 06:32:40;;;;;;;;;;;;;;;;;;1912939;28;7009;-63
2021/12/16 06:33:37;;;;;;;;;;;;;;;;;;1913217;28;7045;-64
2021/12/16 06:34:35;;;;;;;;;;;;;;;;;;1912023;28;7013;-63
2021/12/16 06:35:32;;;;;;;;;;;;;;;;;;1912342;28;7009;-63
2021/12/16 06:36:30;;;;;;;;;;;;;;;;;;1912530;28;7014;-63
2021/12/16 06:37:27;;;;;;;;;;;;;;;;;;1913034;28;7199;-63
2021/12/16 06:38:25;;;;;;;;;;;;;;;;;;1912980;28;7256;-62
2021/12/16 06:39:22;;;;;;;;;;;;;;;;;;1913091;28;7042;-63
2021/12/16 06:40:21;;;;;;;;;;;;;;;;;;1913225;28;7006;-63
2021/12/16 06:41:19;;;;;;;;;;;;;;;;;;1912867;28;7009;-63
2021/12/16 06:42:17;;;;;;;;;;;;;;;;;;1912926;28;7005;-63
2021/12/16 06:43:16;;;;;;;;;;;;;;;;;;1912990;28;7088;-64
2021/12/16 06:44:28;;;;;;;;;;;;;;;;;;1914545;28;7029;-62
2021/12/16 06:45:30;;;;;;;;;;;;;;;;;;1906411;28;7038;-63
2021/12/16 06:46:33;;;;;;;;;;;;;;;;;;1906414;28;7100;-63
2021/12/16 06:47:41;;;;;;;;;;;;;;;;;;1914587;28;7037;-64
2021/12/16 06:48:42;;;;;;;;;;;;;;;;;;1914329;28;7097;-62
2021/12/16 06:49:42;;;;;;;;;;;;;;;;;;1914515;28;7009;-64
2021/12/16 06:51:20;;;;;;;;;;;;;;;;;;1913969;28;7001;-64
2021/12/16 06:52:05;;;;;;;;;;;;;;;;;;1913586;28;7092;-63
2021/12/16 06:53:05;;;;;;;;;;;;;;;;;;1914061;28;7010;-63
2021/12/16 06:54:07;;;;;;;;;;;;;;;;;;1914790;28;7025;-63
2021/12/16 06:55:12;;;;;;;;;;;;;;;;;;1912853;28;8320;-63
2021/12/16 06:56:16;;;;;;;;;;;;;;;;;;1914288;28;7013;-63
2021/12/16 06:57:22;;;;;;;;;;;;;;;;;;1913881;28;7005;-63
2021/12/16 06:58:29;;;;;;;;;;;;;;;;;;1914542;28;7017;-63
2021/12/16 06:59:33;;;;;;;;;;;;;;;;;;1914083;28;7105;-63
2021/12/16 07:00:36;;;;;;;;;;;;;;;;;;1914396;28;7005;-64
2021/12/16 07:03:45;;;;;;;;;;;;;;;;;;1921775;28;7038;-63
2021/12/16 07:04:45;;;;;;;;;;;;;;;;;;1921673;28;7042;-62
2021/12/16 07:05:44;;;;;;;;;;;;;;;;;;1921735;28;7013;-62
2021/12/16 07:06:41;;;;;;;;;;;;;;;;;;1921882;28;7042;-63
2021/12/16 07:07:40;;;;;;;;;;;;;;;;;;1921630;28;7001;-63
2021/12/16 07:08:37;;;;;;;;;;;;;;;;;;1918484;28;7113;-62
2021/12/16 07:09:35;;;;;;;;;;;;;;;;;;1914063;28;7092;-63
2021/12/16 07:10:32;;;;;;;;;;;;;;;;;;1913802;28;8046;-63
2021/12/16 07:11:36;;;;;;;;;;;;;;;;;;1914116;28;8051;-63
2021/12/16 07:12:38;;;;;;;;;;;;;;;;;;1914121;28;7038;-62
2021/12/16 07:13:40;;;;;;;;;;;;;;;;;;1916545;28;7042;-63
2021/12/16 07:14:40;;;;;;;;;;;;;;;;;;1922171;28;7005;-63
2021/12/16 07:15:38;;;;;;;;;;;;;;;;;;1921707;28;7292;-62
2021/12/16 07:16:35;;;;;;;;;;;;;;;;;;1921398;28;7006;-63
2021/12/16 07:17:33;;;;;;;;;;;;;;;;;;1920922;28;7170;-63
2021/12/16 07:18:30;;;;;;;;;;;;;;;;;;1921623;28;8341;-62
2021/12/16 07:19:28;;;;;;;;;;;;;;;;;;1913689;28;7023;-64
2021/12/16 07:20:27;;;;;;;;;;;;;;;;;;1914146;28;8108;-63
2021/12/16 07:21:25;;;;;;;;;;;;;;;;;;1913908;28;7013;-63
2021/12/16 07:22:22;;;;;;;;;;;;;;;;;;1913870;28;7009;-63
2021/12/16 07:23:20;;;;;;;;;;;;;;;;;;1913377;28;7105;-63
2021/12/16 07:24:19;;;;;;;;;;;;;;;;;;1913163;28;7021;-64
2021/12/16 07:25:16;;;;;;;;;;;;;;;;;;1913834;28;7146;-63
2021/12/16 07:26:14;;;;;;;;;;;;;;;;;;1913616;28;7001;-63
2021/12/16 07:27:12;;;;;;;;;;;;;;;;;;1914058;28;7013;-62
2021/12/16 07:28:09;;;;;;;;;;;;;;;;;;1913504;28;7005;-63
2021/12/16 07:29:07;;;;;;;;;;;;;;;;;;1912757;28;7005;-63
2021/12/16 07:30:10;;;;;;;;;;;;;;;;;;1912627;28;8813;-63
2021/12/16 07:31:07;;;;;;;;;;;;;;;;;;1913924;28;7005;-63
2021/12/16 07:32:06;;;;;;;;;;;;;;;;;;1913826;28;7018;-63
2021/12/16 07:33:04;;;;;;;;;;;;;;;;;;1914020;28;7319;-63
2021/12/16 07:34:02;;;;;;;;;;;;;;;;;;1913916;28;7100;-63
2021/12/16 07:35:00;;;;;;;;;;;;;;;;;;1913376;28;7021;-63
2021/12/16 07:35:59;;;;;;;;;;;;;;;;;;1914413;28;7050;-64
2021/12/16 07:36:56;;;;;;;;;;;;;;;;;;1917442;28;7013;-63
2021/12/16 07:37:54;;;;;;;;;;;;;;;;;;1921700;28;7116;-63
2021/12/16 07:38:52;;;;;;;;;;;;;;;;;;1921780;28;7112;-63
2021/12/16 07:39:51;;;;;;;;;;;;;;;;;;1921518;28;7013;-63
2021/12/16 07:40:51;;;;;;;;;;;;;;;;;;1921503;28;7092;-64
2021/12/16 07:41:50;;;;;;;;;;;;;;;;;;1922035;28;7005;-63
2021/12/16 07:44:10;;;;;;;;;;;;;;;;;;1912967;28;7100;-63
2021/12/16 07:45:08;;;;;;;;;;;;;;;;;;1914743;28;7002;-62
2021/12/16 07:46:05;;;;;;;;;;;;;;;;;;1912902;28;7042;-64
2021/12/16 07:47:06;;;;;;;;;;;;;;;;;;1914007;28;7113;-62
2021/12/16 07:48:04;;;;;;;;;;;;;;;;;;1914262;28;7009;-63
2021/12/16 07:49:03;;;;;;;;;;;;;;;;;;1914092;28;7042;-63
2021/12/16 07:50:00;;;;;;;;;;;;;;;;;;1913969;28;8111;-63
2021/12/16 07:51:00;;;;;;;;;;;;;;;;;;1913979;28;8077;-64
2021/12/16 07:51:59;;;;;;;;;;;;;;;;;;1914047;28;7006;-62
2021/12/16 07:52:56;;;;;;;;;;;;;;;;;;1914603;28;7014;-63
2021/12/16 07:53:53;;;;;;;;;;;;;;;;;;1915813;28;7077;-64
2021/12/16 07:54:51;;;;;;;;;;;;;;;;;;1920481;28;7009;-64
2021/12/16 07:55:49;;;;;;;;;;;;;;;;;;1921321;28;7343;-63
2021/12/16 07:56:48;;;;;;;;;;;;;;;;;;1921641;28;7318;-63
2021/12/16 07:57:46;;;;;;;;;;;;;;;;;;1921602;28;7107;-64
2021/12/16 07:58:43;;;;;;;;;;;;;;;;;;1921652;28;7105;-63
2021/12/16 07:59:41;;;;;;;;;;;;;;;;;;1921749;28;7096;-62
2021/12/16 08:00:39;;;;;;;;;;;;;;;;;;1921854;28;7084;-63
2021/12/16 08:01:38;;;;;;;;;;;;;;;;;;1917787;28;7013;-63
2021/12/16 08:02:37;;;;;;;;;;;;;;;;;;1912405;28;7026;-63
2021/12/16 08:03:36;;;;;;;;;;;;;;;;;;1912337;28;7176;-63
2021/12/16 08:04:39;;;;;;;;;;;;;;;;;;1913490;28;7479;-63
2021/12/16 08:05:40;;;;;;;;;;;;;;;;;;1913633;28;8035;-62
2021/12/16 08:06:38;;;;;;;;;;;;;;;;;;1914029;28;7180;-63
2021/12/16 08:07:36;;;;;;;;;;;;;;;;;;1913842;28;7010;-63
2021/12/16 08:08:34;;;;;;;;;;;;;;;;;;1914169;28;7005;-63
2021/12/16 08:09:35;;;;;;;;;;;;;;;;;;1912828;28;7025;-63
2021/12/16 08:10:33;;;;;;;;;;;;;;;;;;1913718;28;7109;-62
2021/12/16 08:11:36;;;;;;;;;;;;;;;;;;1918251;28;7969;-62
2021/12/16 08:12:36;;;;;;;;;;;;;;;;;;1913813;28;7018;-64
2021/12/16 08:13:34;;;;;;;;;;;;;;;;;;1915660;28;7092;-63
2021/12/16 08:14:31;;;;;;;;;;;;;;;;;;1921080;28;7109;-63
2021/12/16 08:15:29;;;;;;;;;;;;;;;;;;1921208;28;7096;-63
2021/12/16 08:16:26;;;;;;;;;;;;;;;;;;1921246;28;7005;-62
2021/12/16 08:17:24;;;;;;;;;;;;;;;;;;1921438;28;7380;-63
2021/12/16 08:18:21;;;;;;;;;;;;;;;;;;1920829;28;7209;-63
2021/12/16 08:19:20;;;;;;;;;;;;;;;;;;1918837;28;7348;-63
2021/12/16 08:20:18;;;;;;;;;;;;;;;;;;1913459;28;7029;-62
2021/12/16 08:21:16;;;;;;;;;;;;;;;;;;1913460;28;7017;-63
2021/12/16 08:22:15;;;;;;;;;;;;;;;;;;1913114;28;7009;-63
2021/12/16 08:23:12;;;;;;;;;;;;;;;;;;1920303;28;7025;-63
2021/12/16 08:24:16;;;;;;;;;;;;;;;;;;1921185;28;7157;-63
2021/12/16 08:25:15;;;;;;;;;;;;;;;;;;1921574;28;7064;-63
2021/12/16 08:26:15;;;;;;;;;;;;;;;;;;1920790;28;8032;-63
2021/12/16 08:27:13;;;;;;;;;;;;;;;;;;1920940;28;7049;-63
2021/12/16 08:28:11;;;;;;;;;;;;;;;;;;1920521;28;8013;-63
2021/12/16 08:29:08;;;;;;;;;;;;;;;;;;1913179;28;7419;-63
2021/12/16 08:30:08;;;;;;;;;;;;;;;;;;1913294;28;7209;-63
2021/12/16 08:31:07;;;;;;;;;;;;;;;;;;1913729;28;8099;-63
2021/12/16 08:32:04;;;;;;;;;;;;;;;;;;1914186;28;7112;-63
2021/12/16 08:33:06;;;;;;;;;;;;;;;;;;1913721;28;7152;-63
2021/12/16 08:34:05;;;;;;;;;;;;;;;;;;1913098;28;7219;-62
2021/12/16 08:35:03;;;;;;;;;;;;;;;;;;1912457;28;7005;-63
2021/12/16 08:36:00;;;;;;;;;;;;;;;;;;1913495;28;7005;-63
2021/12/16 08:36:58;;;;;;;;;;;;;;;;;;1917170;28;7127;-62
2021/12/16 08:37:56;;;;;;;;;;;;;;;;;;1921298;28;7125;-63
2021/12/16 08:38:53;;;;;;;;;;;;;;;;;;1917521;28;7084;-63
2021/12/16 08:39:52;;;;;;;;;;;;;;;;;;1914438;28;7092;-63
2021/12/16 08:40:52;;;;;;;;;;;;;;;;;;1913353;28;7005;-63
2021/12/16 08:41:50;;;;;;;;;;;;;;;;;;1913608;28;7026;-63
2021/12/16 08:42:48;;;;;;;;;;;;;;;;;;1913587;28;7270;-63
2021/12/16 08:43:46;;;;;;;;;;;;;;;;;;1914068;28;7105;-63
2021/12/16 08:44:44;;;;;;;;;;;;;;;;;;1913833;28;7006;-62
2021/12/16 08:45:43;;;;;;;;;;;;;;;;;;1913814;28;7021;-63
2021/12/16 08:46:42;;;;;;;;;;;;;;;;;;1913571;28;7107;-63
2021/12/16 08:47:40;;;;;;;;;;;;;;;;;;1914322;28;7005;-62
2021/12/16 08:48:38;;;;;;;;;;;;;;;;;;1921524;28;7034;-63
2021/12/16 08:49:36;;;;;;;;;;;;;;;;;;1921169;28;7010;-63
2021/12/16 08:50:36;;;;;;;;;;;;;;;;;;1921067;28;8022;-63
2021/12/16 08:51:36;;;;;;;;;;;;;;;;;;1921247;28;7013;-62
2021/12/16 08:52:34;;;;;;;;;;;;;;;;;;1921234;28;7005;-62
2021/12/16 08:53:32;;;;;;;;;;;;;;;;;;1920991;28;7117;-63
2021/12/16 08:54:30;;;;;;;;;;;;;;;;;;1921152;28;7022;-63
2021/12/16 08:55:30;;;;;;;;;;;;;;;;;;1921666;28;7120;-62
2021/12/16 08:56:27;;;;;;;;;;;;;;;;;;1914220;28;7009;-63
2021/12/16 08:57:25;;;;;;;;;;;;;;;;;;1913697;28;7147;-63
2021/12/16 08:58:24;;;;;;;;;;;;;;;;;;1913834;28;7042;-62
2021/12/16 08:59:21;;;;;;;;;;;;;;;;;;1913349;28;7010;-63
2021/12/16 09:00:23;;;;;;;;;;;;;;;;;;1913308;28;7331;-63
2021/12/16 09:01:23;;;;;;;;;;;;;;;;;;1912087;28;7100;-62
2021/12/16 09:02:22;;;;;;;;;;;;;;;;;;1913467;28;7355;-64
2021/12/16 09:03:20;;;;;;;;;;;;;;;;;;1921159;28;7005;-62
2021/12/16 09:04:19;;;;;;;;;;;;;;;;;;1921533;28;7057;-63
2021/12/16 09:05:17;;;;;;;;;;;;;;;;;;1920966;28;7104;-62
2021/12/16 09:06:16;;;;;;;;;;;;;;;;;;1920396;28;9098;-63
2021/12/16 09:07:13;;;;;;;;;;;;;;;;;;1920823;28;8051;-63
2021/12/16 09:08:11;;;;;;;;;;;;;;;;;;1920760;28;7448;-63
2021/12/16 09:09:09;;;;;;;;;;;;;;;;;;1914934;28;8099;-62
2021/12/16 09:10:11;;;;;;;;;;;;;;;;;;1920859;28;7128;-62
2021/12/16 09:11:10;;;;;;;;;;;;;;;;;;1916656;28;7029;-63
2021/12/16 09:12:13;;;;;;;;;;;;;;;;;;1913567;28;7013;-63
2021/12/16 09:13:14;;;;;;;;;;;;;;;;;;1912804;28;7335;-62
2021/12/16 09:14:12;;;;;;;;;;;;;;;;;;1913541;28;7001;-62
2021/12/16 09:15:10;;;;;;;;;;;;;;;;;;1913363;28;7014;-63
2021/12/16 09:16:11;;;;;;;;;;;;;;;;;;1913033;28;7009;-63
2021/12/16 09:17:13;;;;;;;;;;;;;;;;;;1912973;28;7092;-63
2021/12/16 09:18:14;;;;;;;;;;;;;;;;;;1919164;28;8110;-63
2021/12/16 09:19:11;;;;;;;;;;;;;;;;;;1912169;28;7092;-63
2021/12/16 09:20:10;;;;;;;;;;;;;;;;;;1913018;28;7113;-63
2021/12/16 09:21:12;;;;;;;;;;;;;;;;;;1913154;28;8023;-63
2021/12/16 09:22:10;;;;;;;;;;;;;;;;;;1912920;28;7042;-63
2021/12/16 09:23:09;;;;;;;;;;;;;;;;;;1912062;28;7013;-63
2021/12/16 09:24:07;;;;;;;;;;;;;;;;;;1912387;28;7104;-63
2021/12/16 09:25:06;;;;;;;;;;;;;;;;;;1914170;28;7029;-63
2021/12/16 09:26:04;;;;;;;;;;;;;;;;;;1913086;28;7088;-63